sensor_id;sensor_type;location;lat;lon;timestamp;pressure;altitude;pressure_sealevel;temperature;humidity
6393;BME280;3229;42.674;23.282;2023-08-08T00:00:29;94514.47;;;17.99;94.18
6393;BME280;3229;42.674;23.282;2023-08-08T00:02:56;94514.59;;;17.91;94.61
6393;BME280;3229;42.674;23.282;2023-08-08T00:05:23;94517.13;;;17.85;96.09
6393;BME280;3229;42.674;23.282;2023-08-08T00:07:51;94525.03;;;17.76;95.99
6393;BME280;3229;42.674;23.282;2023-08-08T00:10:18;94522.34;;;17.70;95.56
6393;BME280;3229;42.674;23.282;2023-08-08T00:12:45;94516.31;;;17.63;95.74
6393;BME280;3229;42.674;23.282;2023-08-08T00:15:11;94521.50;;;17.63;95.74
6393;BME280;3229;42.674;23.282;2023-08-08T00:17:38;94517.25;;;17.55;95.20
6393;BME280;3229;42.674;23.282;2023-08-08T00:20:06;94513.66;;;17.56;94.25
6393;BME280;3229;42.674;23.282;2023-08-08T00:22:33;94516.19;;;17.49;94.58
6393;BME280;3229;42.674;23.282;2023-08-08T00:25:02;94495.94;;;17.32;94.96
6393;BME280;3229;42.674;23.282;2023-08-08T00:27:29;94516.88;;;17.37;94.60
6393;BME280;3229;42.674;23.282;2023-08-08T00:29:56;94523.63;;;17.38;95.25
6393;BME280;3229;42.674;23.282;2023-08-08T00:32:22;94525.22;;;17.39;94.83
6393;BME280;3229;42.674;23.282;2023-08-08T00:34:49;94531.03;;;17.41;94.24
6393;BME280;3229;42.674;23.282;2023-08-08T00:37:16;94530.75;;;17.36;94.28
6393;BME280;3229;42.674;23.282;2023-08-08T00:39:43;94534.88;;;17.30;94.67
6393;BME280;3229;42.674;23.282;2023-08-08T00:42:13;94529.09;;;17.28;94.59
6393;BME280;3229;42.674;23.282;2023-08-08T00:44:39;94514.41;;;17.14;94.92
6393;BME280;3229;42.674;23.282;2023-08-08T00:47:07;94537.13;;;17.18;94.71
6393;BME280;3229;42.674;23.282;2023-08-08T00:49:34;94536.63;;;17.08;94.85
6393;BME280;3229;42.674;23.282;2023-08-08T00:52:01;94543.66;;;17.14;94.35
6393;BME280;3229;42.674;23.282;2023-08-08T00:54:28;94545.97;;;17.09;94.91
6393;BME280;3229;42.674;23.282;2023-08-08T00:56:55;94544.81;;;17.12;95.29
6393;BME280;3229;42.674;23.282;2023-08-08T00:59:23;94544.81;;;17.12;95.18
6393;BME280;3229;42.674;23.282;2023-08-08T01:01:50;94546.78;;;17.10;94.61
6393;BME280;3229;42.674;23.282;2023-08-08T01:04:18;94548.00;;;17.14;93.58
6393;BME280;3229;42.674;23.282;2023-08-08T01:06:54;94550.97;;;17.11;93.63
6393;BME280;3229;42.674;23.282;2023-08-08T01:09:29;94553.56;;;17.11;94.16
6393;BME280;3229;42.674;23.282;2023-08-08T01:11:56;94562.13;;;17.11;93.90
6393;BME280;3229;42.674;23.282;2023-08-08T01:14:26;94558.88;;;17.09;93.84
6393;BME280;3229;42.674;23.282;2023-08-08T01:16:55;94556.16;;;17.11;93.33
6393;BME280;3229;42.674;23.282;2023-08-08T01:19:26;94555.59;;;17.15;92.13
6393;BME280;3229;42.674;23.282;2023-08-08T01:21:54;94555.34;;;17.10;93.25
6393;BME280;3229;42.674;23.282;2023-08-08T01:24:25;94556.94;;;17.11;93.09
6393;BME280;3229;42.674;23.282;2023-08-08T01:26:54;94527.84;;;16.88;92.92
6393;BME280;3229;42.674;23.282;2023-08-08T01:29:22;94560.06;;;17.07;93.60
6393;BME280;3229;42.674;23.282;2023-08-08T01:31:48;94567.03;;;17.06;93.38
6393;BME280;3229;42.674;23.282;2023-08-08T01:34:15;94572.53;;;17.03;93.35
6393;BME280;3229;42.674;23.282;2023-08-08T01:36:46;94578.50;;;17.03;92.92
6393;BME280;3229;42.674;23.282;2023-08-08T01:39:17;94595.25;;;17.08;91.71
6393;BME280;3229;42.674;23.282;2023-08-08T01:41:48;94599.19;;;17.03;92.19
6393;BME280;3229;42.674;23.282;2023-08-08T01:44:15;94591.78;;;17.00;92.33
6393;BME280;3229;42.674;23.282;2023-08-08T01:46:43;94595.88;;;16.95;92.24
6393;BME280;3229;42.674;23.282;2023-08-08T01:49:10;94596.06;;;16.93;92.54
6393;BME280;3229;42.674;23.282;2023-08-08T01:51:36;94601.06;;;16.95;91.73
6393;BME280;3229;42.674;23.282;2023-08-08T01:54:03;94597.69;;;16.94;91.25
6393;BME280;3229;42.674;23.282;2023-08-08T01:56:30;94534.31;;;16.39;92.07
6393;BME280;3229;42.674;23.282;2023-08-08T01:58:58;94615.31;;;16.91;92.33
6393;BME280;3229;42.674;23.282;2023-08-08T02:01:25;94621.81;;;16.87;93.40
6393;BME280;3229;42.674;23.282;2023-08-08T02:03:52;94617.63;;;16.86;93.14
6393;BME280;3229;42.674;23.282;2023-08-08T02:06:19;94618.63;;;16.85;92.99
6393;BME280;3229;42.674;23.282;2023-08-08T02:08:45;94615.84;;;16.86;92.21
6393;BME280;3229;42.674;23.282;2023-08-08T02:11:12;94616.84;;;16.85;92.23
6393;BME280;3229;42.674;23.282;2023-08-08T02:13:39;94613.06;;;16.88;92.76
6393;BME280;3229;42.674;23.282;2023-08-08T02:16:07;94616.28;;;16.90;92.80
6393;BME280;3229;42.674;23.282;2023-08-08T02:18:34;94620.66;;;16.89;92.31
6393;BME280;3229;42.674;23.282;2023-08-08T02:21:01;94629.66;;;16.93;91.81
6393;BME280;3229;42.674;23.282;2023-08-08T02:23:28;94634.97;;;16.92;91.99
6393;BME280;3229;42.674;23.282;2023-08-08T02:25:55;94637.88;;;16.97;91.41
6393;BME280;3229;42.674;23.282;2023-08-08T02:28:21;94643.19;;;16.95;91.05
6393;BME280;3229;42.674;23.282;2023-08-08T02:30:48;94646.75;;;16.94;91.56
6393;BME280;3229;42.674;23.282;2023-08-08T02:33:16;94642.72;;;16.92;91.69
6393;BME280;3229;42.674;23.282;2023-08-08T02:35:43;94631.59;;;16.91;91.93
6393;BME280;3229;42.674;23.282;2023-08-08T02:38:10;94634.19;;;16.91;92.44
6393;BME280;3229;42.674;23.282;2023-08-08T02:40:37;94641.94;;;16.91;92.42
6393;BME280;3229;42.674;23.282;2023-08-08T02:43:04;94649.06;;;16.89;92.81
6393;BME280;3229;42.674;23.282;2023-08-08T02:45:31;94650.41;;;16.85;93.18
6393;BME280;3229;42.674;23.282;2023-08-08T02:47:58;94644.97;;;16.80;93.68
6393;BME280;3229;42.674;23.282;2023-08-08T02:50:26;94657.44;;;16.91;93.33
6393;BME280;3229;42.674;23.282;2023-08-08T02:52:53;94657.28;;;16.93;93.22
6393;BME280;3229;42.674;23.282;2023-08-08T02:55:19;94658.88;;;16.94;93.08
6393;BME280;3229;42.674;23.282;2023-08-08T02:57:46;94671.00;;;16.93;92.91
6393;BME280;3229;42.674;23.282;2023-08-08T03:00:13;94680.06;;;16.89;93.25
6393;BME280;3229;42.674;23.282;2023-08-08T03:02:40;94672.66;;;16.86;92.66
6393;BME280;3229;42.674;23.282;2023-08-08T03:05:07;94671.78;;;16.94;92.71
6393;BME280;3229;42.674;23.282;2023-08-08T03:07:35;94664.19;;;16.92;93.01
6393;BME280;3229;42.674;23.282;2023-08-08T03:10:03;94668.41;;;16.93;92.53
6393;BME280;3229;42.674;23.282;2023-08-08T03:12:30;94665.19;;;16.91;92.52
6393;BME280;3229;42.674;23.282;2023-08-08T03:14:57;94662.97;;;16.88;92.09
6393;BME280;3229;42.674;23.282;2023-08-08T03:17:23;94679.28;;;16.89;91.84
6393;BME280;3229;42.674;23.282;2023-08-08T03:19:50;94676.50;;;16.90;92.01
6393;BME280;3229;42.674;23.282;2023-08-08T03:22:17;94668.41;;;16.93;91.67
6393;BME280;3229;42.674;23.282;2023-08-08T03:24:45;94677.13;;;16.92;92.04
6393;BME280;3229;42.674;23.282;2023-08-08T03:27:12;94671.59;;;16.95;92.15
6393;BME280;3229;42.674;23.282;2023-08-08T03:29:39;94672.84;;;16.85;92.15
6393;BME280;3229;42.674;23.282;2023-08-08T03:32:06;94686.66;;;16.92;91.80
6393;BME280;3229;42.674;23.282;2023-08-08T03:34:33;94676.31;;;16.92;92.11
6393;BME280;3229;42.674;23.282;2023-08-08T03:36:59;94674.03;;;16.97;91.98
6393;BME280;3229;42.674;23.282;2023-08-08T03:39:26;94674.19;;;16.95;91.94
6393;BME280;3229;42.674;23.282;2023-08-08T03:41:54;94689.06;;;16.93;92.12
6393;BME280;3229;42.674;23.282;2023-08-08T03:44:21;94689.22;;;16.92;92.13
6393;BME280;3229;42.674;23.282;2023-08-08T03:46:48;94671.06;;;16.85;92.19
6393;BME280;3229;42.674;23.282;2023-08-08T03:49:16;94682.28;;;16.92;92.14
6393;BME280;3229;42.674;23.282;2023-08-08T03:51:43;94674.72;;;16.91;91.71
6393;BME280;3229;42.674;23.282;2023-08-08T03:54:09;94674.53;;;16.92;91.92
6393;BME280;3229;42.674;23.282;2023-08-08T03:56:36;94672.25;;;16.97;91.98
6393;BME280;3229;42.674;23.282;2023-08-08T03:59:04;94683.84;;;17.01;91.47
6393;BME280;3229;42.674;23.282;2023-08-08T04:01:31;94680.34;;;17.09;90.43
6393;BME280;3229;42.674;23.282;2023-08-08T04:03:58;94680.78;;;17.13;90.79
6393;BME280;3229;42.674;23.282;2023-08-08T04:06:25;94687.84;;;17.19;89.94
6393;BME280;3229;42.674;23.282;2023-08-08T04:08:52;94615.19;;;16.69;89.05
6393;BME280;3229;42.674;23.282;2023-08-08T04:11:18;94704.75;;;17.21;88.60
6393;BME280;3229;42.674;23.282;2023-08-08T04:13:45;94713.94;;;17.24;88.00
6393;BME280;3229;42.674;23.282;2023-08-08T04:16:14;94710.28;;;17.18;88.33
6393;BME280;3229;42.674;23.282;2023-08-08T04:18:40;94701.13;;;17.16;88.90
6393;BME280;3229;42.674;23.282;2023-08-08T04:21:07;94706.63;;;17.13;89.56
6393;BME280;3229;42.674;23.282;2023-08-08T04:23:34;94711.00;;;17.12;90.08
6393;BME280;3229;42.674;23.282;2023-08-08T04:26:01;94720.63;;;17.18;89.44
6393;BME280;3229;42.674;23.282;2023-08-08T04:28:27;94713.25;;;17.15;88.31
6393;BME280;3229;42.674;23.282;2023-08-08T04:30:54;94714.50;;;17.19;89.06
6393;BME280;3229;42.674;23.282;2023-08-08T04:33:22;94719.84;;;17.33;88.18
6393;BME280;3229;42.674;23.282;2023-08-08T04:35:50;94726.88;;;17.39;87.45
6393;BME280;3229;42.674;23.282;2023-08-08T04:38:17;94727.97;;;17.44;87.21
6393;BME280;3229;42.674;23.282;2023-08-08T04:40:44;94717.69;;;17.51;86.95
6393;BME280;3229;42.674;23.282;2023-08-08T04:43:11;94715.00;;;17.59;87.26
6393;BME280;3229;42.674;23.282;2023-08-08T04:45:37;94703.38;;;17.70;86.93
6393;BME280;3229;42.674;23.282;2023-08-08T04:48:05;94703.41;;;17.85;86.43
6393;BME280;3229;42.674;23.282;2023-08-08T04:50:33;94710.88;;;17.94;84.77
6393;BME280;3229;42.674;23.282;2023-08-08T04:53:00;94717.38;;;18.05;83.53
6393;BME280;3229;42.674;23.282;2023-08-08T04:55:27;94724.13;;;18.06;83.18
6393;BME280;3229;42.674;23.282;2023-08-08T04:57:53;94738.69;;;18.07;82.54
6393;BME280;3229;42.674;23.282;2023-08-08T05:00:20;94729.66;;;18.03;82.03
6393;BME280;3229;42.674;23.282;2023-08-08T05:02:47;94754.09;;;18.15;82.00
6393;BME280;3229;42.674;23.282;2023-08-08T05:05:14;94762.75;;;18.22;81.63
6393;BME280;3229;42.674;23.282;2023-08-08T05:07:42;94761.94;;;18.43;82.43
6393;BME280;3229;42.674;23.282;2023-08-08T05:10:09;94774.31;;;18.84;81.38
6393;BME280;3229;42.674;23.282;2023-08-08T05:12:36;94783.16;;;19.18;79.66
6393;BME280;3229;42.674;23.282;2023-08-08T05:15:04;94784.78;;;19.53;78.16
6393;BME280;3229;42.674;23.282;2023-08-08T05:17:31;94782.44;;;19.93;75.88
6393;BME280;3229;42.674;23.282;2023-08-08T05:19:58;94786.38;;;20.30;72.54
6393;BME280;3229;42.674;23.282;2023-08-08T05:22:25;94792.25;;;20.59;72.66
6393;BME280;3229;42.674;23.282;2023-08-08T05:24:53;94785.72;;;20.90;70.61
6393;BME280;3229;42.674;23.282;2023-08-08T05:27:20;94789.31;;;21.09;69.59
6393;BME280;3229;42.674;23.282;2023-08-08T05:29:46;94787.31;;;21.11;68.06
6393;BME280;3229;42.674;23.282;2023-08-08T05:32:13;94794.91;;;21.19;68.78
6393;BME280;3229;42.674;23.282;2023-08-08T05:34:40;94794.34;;;21.43;67.84
6393;BME280;3229;42.674;23.282;2023-08-08T05:37:07;94814.28;;;21.76;64.97
6393;BME280;3229;42.674;23.282;2023-08-08T05:39:33;94822.09;;;21.89;65.35
6393;BME280;3229;42.674;23.282;2023-08-08T05:42:02;94822.41;;;22.06;64.79
6393;BME280;3229;42.674;23.282;2023-08-08T05:44:29;94817.75;;;22.35;65.01
6393;BME280;3229;42.674;23.282;2023-08-08T05:46:56;94824.16;;;22.77;61.93
6393;BME280;3229;42.674;23.282;2023-08-08T05:49:22;94828.50;;;22.90;61.82
6393;BME280;3229;42.674;23.282;2023-08-08T05:51:49;94834.28;;;22.98;61.84
6393;BME280;3229;42.674;23.282;2023-08-08T05:54:16;94823.50;;;22.82;61.19
6393;BME280;3229;42.674;23.282;2023-08-08T05:56:43;94826.63;;;22.65;61.79
6393;BME280;3229;42.674;23.282;2023-08-08T05:59:11;94835.28;;;22.59;61.52
6393;BME280;3229;42.674;23.282;2023-08-08T06:01:37;94845.22;;;22.31;62.66
6393;BME280;3229;42.674;23.282;2023-08-08T06:04:04;94862.91;;;22.09;64.27
6393;BME280;3229;42.674;23.282;2023-08-08T06:06:31;94863.53;;;21.91;64.51
6393;BME280;3229;42.674;23.282;2023-08-08T06:08:58;94848.75;;;21.71;64.88
6393;BME280;3229;42.674;23.282;2023-08-08T06:11:25;94847.34;;;21.62;65.14
6393;BME280;3229;42.674;23.282;2023-08-08T06:16:21;94852.78;;;21.41;66.66
6393;BME280;3229;42.674;23.282;2023-08-08T06:18:48;94841.38;;;21.48;66.43
6393;BME280;3229;42.674;23.282;2023-08-08T06:21:15;94833.78;;;21.47;64.19
6393;BME280;3229;42.674;23.282;2023-08-08T06:23:41;94842.53;;;21.86;64.50
6393;BME280;3229;42.674;23.282;2023-08-08T06:26:08;94832.22;;;22.24;63.52
6393;BME280;3229;42.674;23.282;2023-08-08T06:28:36;94827.31;;;22.41;62.24
6393;BME280;3229;42.674;23.282;2023-08-08T06:31:03;94837.09;;;22.59;60.52
6393;BME280;3229;42.674;23.282;2023-08-08T06:33:31;94834.41;;;22.72;59.85
6393;BME280;3229;42.674;23.282;2023-08-08T06:35:58;94835.34;;;22.84;60.30
6393;BME280;3229;42.674;23.282;2023-08-08T06:38:24;94834.19;;;23.12;60.08
6393;BME280;3229;42.674;23.282;2023-08-08T06:40:51;94834.66;;;23.52;57.90
6393;BME280;3229;42.674;23.282;2023-08-08T06:43:18;94831.25;;;23.76;55.36
6393;BME280;3229;42.674;23.282;2023-08-08T06:45:45;94833.50;;;23.73;56.15
6393;BME280;3229;42.674;23.282;2023-08-08T06:48:12;94834.56;;;23.65;56.26
6393;BME280;3229;42.674;23.282;2023-08-08T06:50:40;94830.50;;;23.69;55.11
6393;BME280;3229;42.674;23.282;2023-08-08T06:53:08;94833.38;;;23.61;54.48
6393;BME280;3229;42.674;23.282;2023-08-08T06:55:36;94845.75;;;23.72;52.10
6393;BME280;3229;42.674;23.282;2023-08-08T06:58:03;94840.91;;;23.94;51.72
6393;BME280;3229;42.674;23.282;2023-08-08T07:00:29;94843.66;;;24.18;49.69
6393;BME280;3229;42.674;23.282;2023-08-08T07:02:56;94847.44;;;24.22;50.34
6393;BME280;3229;42.674;23.282;2023-08-08T07:05:23;94839.84;;;24.20;50.96
6393;BME280;3229;42.674;23.282;2023-08-08T07:07:52;94841.59;;;24.45;49.42
6393;BME280;3229;42.674;23.282;2023-08-08T07:10:19;94854.69;;;24.57;48.66
6393;BME280;3229;42.674;23.282;2023-08-08T07:12:46;94844.41;;;24.43;49.42
6393;BME280;3229;42.674;23.282;2023-08-08T07:15:14;94847.44;;;24.59;49.62
6393;BME280;3229;42.674;23.282;2023-08-08T07:17:41;94843.63;;;24.73;48.06
6393;BME280;3229;42.674;23.282;2023-08-08T07:20:08;94850.16;;;24.82;48.35
6393;BME280;3229;42.674;23.282;2023-08-08T07:22:39;94847.41;;;24.77;48.15
6393;BME280;3229;42.674;23.282;2023-08-08T07:25:08;94844.25;;;24.87;47.59
6393;BME280;3229;42.674;23.282;2023-08-08T07:27:36;94833.78;;;24.87;48.13
6393;BME280;3229;42.674;23.282;2023-08-08T07:30:04;94844.09;;;25.00;47.27
6393;BME280;3229;42.674;23.282;2023-08-08T07:32:32;94847.34;;;25.14;46.76
6393;BME280;3229;42.674;23.282;2023-08-08T07:34:59;94840.06;;;25.27;45.81
6393;BME280;3229;42.674;23.282;2023-08-08T07:37:28;94838.81;;;25.42;45.36
6393;BME280;3229;42.674;23.282;2023-08-08T07:39:55;94840.22;;;25.56;45.88
6393;BME280;3229;42.674;23.282;2023-08-08T07:42:23;94849.13;;;25.79;45.93
6393;BME280;3229;42.674;23.282;2023-08-08T07:44:50;94856.19;;;26.01;43.95
6393;BME280;3229;42.674;23.282;2023-08-08T07:47:17;94845.34;;;25.86;43.59
6393;BME280;3229;42.674;23.282;2023-08-08T07:49:43;94856.19;;;25.78;43.60
6393;BME280;3229;42.674;23.282;2023-08-08T07:52:10;94847.41;;;25.61;44.33
6393;BME280;3229;42.674;23.282;2023-08-08T07:54:37;94846.72;;;25.65;43.92
6393;BME280;3229;42.674;23.282;2023-08-08T07:57:04;94848.16;;;25.73;43.45
6393;BME280;3229;42.674;23.282;2023-08-08T07:59:32;94840.00;;;25.81;44.13
6393;BME280;3229;42.674;23.282;2023-08-08T08:01:59;94849.09;;;26.02;44.55
6393;BME280;3229;42.674;23.282;2023-08-08T08:04:26;94844.16;;;26.29;43.40
6393;BME280;3229;42.674;23.282;2023-08-08T08:06:52;94844.03;;;26.47;43.03
6393;BME280;3229;42.674;23.282;2023-08-08T08:09:19;94835.81;;;26.56;42.32
6393;BME280;3229;42.674;23.282;2023-08-08T08:11:46;94843.09;;;26.42;43.22
6393;BME280;3229;42.674;23.282;2023-08-08T08:14:13;94841.72;;;26.51;43.63
6393;BME280;3229;42.674;23.282;2023-08-08T08:16:41;94844.03;;;26.47;43.86
6393;BME280;3229;42.674;23.282;2023-08-08T08:19:08;94841.94;;;26.61;43.12
6393;BME280;3229;42.674;23.282;2023-08-08T08:21:35;94839.69;;;26.41;44.14
6393;BME280;3229;42.674;23.282;2023-08-08T08:24:02;94850.88;;;26.37;43.26
6393;BME280;3229;42.674;23.282;2023-08-08T08:26:29;94849.38;;;26.41;42.85
6393;BME280;3229;42.674;23.282;2023-08-08T08:28:55;94861.22;;;26.55;42.23
6393;BME280;3229;42.674;23.282;2023-08-08T08:31:22;94852.94;;;26.75;42.05
6393;BME280;3229;42.674;23.282;2023-08-08T08:33:50;94853.69;;;26.87;41.27
6393;BME280;3229;42.674;23.282;2023-08-08T08:36:19;94842.28;;;26.65;41.61
6393;BME280;3229;42.674;23.282;2023-08-08T08:38:46;94855.78;;;26.45;42.33
6393;BME280;3229;42.674;23.282;2023-08-08T08:41:17;94843.28;;;26.12;43.30
6393;BME280;3229;42.674;23.282;2023-08-08T08:43:44;94847.16;;;26.09;43.55
6393;BME280;3229;42.674;23.282;2023-08-08T08:46:11;94816.84;;;26.01;43.78
6393;BME280;3229;42.674;23.282;2023-08-08T08:48:40;94850.34;;;26.11;42.96
6393;BME280;3229;42.674;23.282;2023-08-08T08:51:09;94847.84;;;26.05;43.90
6393;BME280;3229;42.674;23.282;2023-08-08T08:53:37;94827.34;;;26.01;43.87
6393;BME280;3229;42.674;23.282;2023-08-08T08:56:04;94854.13;;;25.92;43.35
6393;BME280;3229;42.674;23.282;2023-08-08T08:58:31;94863.66;;;25.51;44.04
6393;BME280;3229;42.674;23.282;2023-08-08T09:00:58;94862.16;;;25.32;44.41
6393;BME280;3229;42.674;23.282;2023-08-08T09:03:26;94855.78;;;25.27;44.39
6393;BME280;3229;42.674;23.282;2023-08-08T09:05:53;94851.34;;;25.28;45.79
6393;BME280;3229;42.674;23.282;2023-08-08T09:08:22;94851.97;;;25.12;45.01
6393;BME280;3229;42.674;23.282;2023-08-08T09:10:49;94849.97;;;24.95;45.99
6393;BME280;3229;42.674;23.282;2023-08-08T09:13:16;94851.19;;;24.81;45.12
6393;BME280;3229;42.674;23.282;2023-08-08T09:15:47;94842.75;;;24.79;45.16
6393;BME280;3229;42.674;23.282;2023-08-08T09:18:14;94850.38;;;24.81;44.65
6393;BME280;3229;42.674;23.282;2023-08-08T09:20:47;94846.72;;;24.82;45.47
6393;BME280;3229;42.674;23.282;2023-08-08T09:23:14;94846.47;;;24.71;44.71
6393;BME280;3229;42.674;23.282;2023-08-08T09:25:42;94830.59;;;24.36;44.88
6393;BME280;3229;42.674;23.282;2023-08-08T09:28:09;94849.41;;;24.26;46.06
6393;BME280;3229;42.674;23.282;2023-08-08T09:30:36;94855.34;;;24.34;46.27
6393;BME280;3229;42.674;23.282;2023-08-08T09:33:03;94840.88;;;24.38;46.96
6393;BME280;3229;42.674;23.282;2023-08-08T09:35:30;94849.19;;;24.28;46.83
6393;BME280;3229;42.674;23.282;2023-08-08T09:37:56;94853.25;;;24.24;47.05
6393;BME280;3229;42.674;23.282;2023-08-08T09:40:23;94859.88;;;24.08;47.08
6393;BME280;3229;42.674;23.282;2023-08-08T09:42:52;94863.91;;;23.86;47.14
6393;BME280;3229;42.674;23.282;2023-08-08T09:45:19;94857.28;;;23.83;47.09
6393;BME280;3229;42.674;23.282;2023-08-08T09:47:49;94854.34;;;23.98;45.57
6393;BME280;3229;42.674;23.282;2023-08-08T09:50:18;94826.81;;;23.77;45.95
6393;BME280;3229;42.674;23.282;2023-08-08T09:52:46;94858.56;;;23.99;45.72
6393;BME280;3229;42.674;23.282;2023-08-08T09:55:13;94866.09;;;23.89;45.89
6393;BME280;3229;42.674;23.282;2023-08-08T09:57:40;94860.94;;;23.82;46.00
6393;BME280;3229;42.674;23.282;2023-08-08T10:00:10;94857.09;;;23.85;46.52
6393;BME280;3229;42.674;23.282;2023-08-08T10:02:42;94853.03;;;23.89;45.81
6393;BME280;3229;42.674;23.282;2023-08-08T10:05:09;94850.16;;;23.97;45.61
6393;BME280;3229;42.674;23.282;2023-08-08T10:07:38;94845.84;;;24.02;45.98
6393;BME280;3229;42.674;23.282;2023-08-08T10:10:06;94853.69;;;24.21;45.86
6393;BME280;3229;42.674;23.282;2023-08-08T10:12:36;94852.13;;;24.38;45.19
6393;BME280;3229;42.674;23.282;2023-08-08T10:15:06;94847.28;;;24.35;45.74
6393;BME280;3229;42.674;23.282;2023-08-08T10:17:36;94852.19;;;24.32;46.37
6393;BME280;3229;42.674;23.282;2023-08-08T10:20:05;94853.50;;;24.22;46.65
6393;BME280;3229;42.674;23.282;2023-08-08T10:22:37;94857.91;;;24.22;46.49
6393;BME280;3229;42.674;23.282;2023-08-08T10:25:05;94849.56;;;24.13;46.48
6393;BME280;3229;42.674;23.282;2023-08-08T10:27:32;94849.03;;;24.04;46.01
6393;BME280;3229;42.674;23.282;2023-08-08T10:30:04;94855.09;;;24.05;46.08
6393;BME280;3229;42.674;23.282;2023-08-08T10:32:43;94848.53;;;23.96;46.54
6393;BME280;3229;42.674;23.282;2023-08-08T10:35:12;94852.38;;;23.93;46.48
6393;BME280;3229;42.674;23.282;2023-08-08T10:37:40;94835.31;;;23.91;46.76
6393;BME280;3229;42.674;23.282;2023-08-08T10:40:08;94837.66;;;23.99;46.64
6393;BME280;3229;42.674;23.282;2023-08-08T10:42:44;94831.13;;;24.08;46.93
6393;BME280;3229;42.674;23.282;2023-08-08T10:45:13;94834.38;;;24.22;46.72
6393;BME280;3229;42.674;23.282;2023-08-08T10:47:43;94830.59;;;24.36;46.63
6393;BME280;3229;42.674;23.282;2023-08-08T10:50:12;94801.13;;;24.29;45.81
6393;BME280;3229;42.674;23.282;2023-08-08T10:52:50;94828.66;;;24.50;45.69
6393;BME280;3229;42.674;23.282;2023-08-08T10:55:21;94813.50;;;24.40;46.20
6393;BME280;3229;42.674;23.282;2023-08-08T10:57:56;94830.47;;;24.49;45.96
6393;BME280;3229;42.674;23.282;2023-08-08T11:00:26;94831.56;;;24.42;45.47
6393;BME280;3229;42.674;23.282;2023-08-08T11:02:56;94825.38;;;24.18;46.28
6393;BME280;3229;42.674;23.282;2023-08-08T11:05:24;94820.25;;;24.11;46.42
6393;BME280;3229;42.674;23.282;2023-08-08T11:07:51;94832.59;;;24.22;46.77
6393;BME280;3229;42.674;23.282;2023-08-08T11:10:19;94823.63;;;24.30;45.33
6393;BME280;3229;42.674;23.282;2023-08-08T11:12:56;94830.47;;;24.31;45.77
6393;BME280;3229;42.674;23.282;2023-08-08T11:15:23;94822.63;;;24.31;45.40
6393;BME280;3229;42.674;23.282;2023-08-08T11:17:50;94828.06;;;24.29;45.86
6393;BME280;3229;42.674;23.282;2023-08-08T11:20:19;94825.78;;;24.40;46.09
6393;BME280;3229;42.674;23.282;2023-08-08T11:22:51;94839.19;;;24.43;45.79
6393;BME280;3229;42.674;23.282;2023-08-08T11:25:18;94817.47;;;24.24;46.35
6393;BME280;3229;42.674;23.282;2023-08-08T11:27:49;94806.94;;;24.13;46.62
6393;BME280;3229;42.674;23.282;2023-08-08T11:30:16;94812.81;;;24.26;45.96
6393;BME280;3229;42.674;23.282;2023-08-08T11:32:43;94819.84;;;24.26;45.91
6393;BME280;3229;42.674;23.282;2023-08-08T11:35:10;94818.19;;;24.32;46.75
6393;BME280;3229;42.674;23.282;2023-08-08T11:37:38;94824.00;;;24.34;46.63
6393;BME280;3229;42.674;23.282;2023-08-08T11:40:06;94822.34;;;24.39;46.23
6393;BME280;3229;42.674;23.282;2023-08-08T11:42:34;94819.22;;;24.49;46.84
6393;BME280;3229;42.674;23.282;2023-08-08T11:45:01;94796.13;;;24.46;46.60
6393;BME280;3229;42.674;23.282;2023-08-08T11:47:30;94807.31;;;24.65;45.27
6393;BME280;3229;42.674;23.282;2023-08-08T11:50:01;94800.94;;;24.61;45.87
6393;BME280;3229;42.674;23.282;2023-08-08T11:52:28;94803.03;;;24.70;45.98
6393;BME280;3229;42.674;23.282;2023-08-08T11:54:58;94805.78;;;24.75;45.31
6393;BME280;3229;42.674;23.282;2023-08-08T11:57:25;94799.63;;;24.70;45.41
6393;BME280;3229;42.674;23.282;2023-08-08T11:59:52;94804.63;;;24.71;45.50
6393;BME280;3229;42.674;23.282;2023-08-08T12:02:19;94801.44;;;24.69;45.18
6393;BME280;3229;42.674;23.282;2023-08-08T12:04:47;94736.63;;;24.11;45.88
6393;BME280;3229;42.674;23.282;2023-08-08T12:07:14;94796.50;;;24.31;45.43
6393;BME280;3229;42.674;23.282;2023-08-08T12:09:41;94790.28;;;24.14;45.54
6393;BME280;3229;42.674;23.282;2023-08-08T12:12:09;94780.97;;;23.99;46.43
6393;BME280;3229;42.674;23.282;2023-08-08T12:14:37;94788.28;;;24.09;47.29
6393;BME280;3229;42.674;23.282;2023-08-08T12:17:04;94789.28;;;24.26;47.07
6393;BME280;3229;42.674;23.282;2023-08-08T12:19:30;94762.59;;;24.24;46.48
6393;BME280;3229;42.674;23.282;2023-08-08T12:21:57;94783.41;;;24.49;45.80
6393;BME280;3229;42.674;23.282;2023-08-08T12:24:24;94777.75;;;24.52;46.06
6393;BME280;3229;42.674;23.282;2023-08-08T12:26:51;94765.31;;;24.48;45.74
6393;BME280;3229;42.674;23.282;2023-08-08T12:29:19;94763.28;;;24.50;46.48
6393;BME280;3229;42.674;23.282;2023-08-08T12:31:46;94769.53;;;24.49;46.09
6393;BME280;3229;42.674;23.282;2023-08-08T12:34:13;94770.75;;;24.46;46.77
6393;BME280;3229;42.674;23.282;2023-08-08T12:36:40;94765.19;;;24.43;47.25
6393;BME280;3229;42.674;23.282;2023-08-08T12:39:06;94759.94;;;24.43;46.63
6393;BME280;3229;42.674;23.282;2023-08-08T12:41:33;94754.53;;;24.44;47.03
6393;BME280;3229;42.674;23.282;2023-08-08T12:44:00;94763.66;;;24.53;47.04
6393;BME280;3229;42.674;23.282;2023-08-08T12:46:29;94762.97;;;24.58;45.75
6393;BME280;3229;42.674;23.282;2023-08-08T12:48:56;94771.72;;;24.34;46.25
6393;BME280;3229;42.674;23.282;2023-08-08T12:51:23;94767.84;;;24.06;46.59
6393;BME280;3229;42.674;23.282;2023-08-08T12:53:50;94766.75;;;23.95;46.90
6393;BME280;3229;42.674;23.282;2023-08-08T12:56:17;94753.13;;;23.75;47.05
6393;BME280;3229;42.674;23.282;2023-08-08T12:58:44;94751.47;;;23.81;47.90
6393;BME280;3229;42.674;23.282;2023-08-08T13:01:10;94752.19;;;23.88;47.78
6393;BME280;3229;42.674;23.282;2023-08-08T13:03:38;94740.56;;;24.02;47.72
6393;BME280;3229;42.674;23.282;2023-08-08T13:06:05;94757.09;;;24.14;46.74
6393;BME280;3229;42.674;23.282;2023-08-08T13:08:32;94750.84;;;24.15;46.14
6393;BME280;3229;42.674;23.282;2023-08-08T13:10:59;94743.72;;;24.22;46.77
6393;BME280;3229;42.674;23.282;2023-08-08T13:13:26;94743.75;;;24.34;45.76